Time;durP1;ratioP1;P1;durP2;ratioP2;P2;SDS_P1;SDS_P2;PMS_P1;PMS_P2;Temp;Humidity;BMP_temperature;BMP_pressure;BME280_temperature;BME280_humidity;BME280_pressure;Samples;Min_cycle;Max_cycle;Signal;HPM_P1;HPM_P2
2023/01/18 00:01:35;;;;;;;;;;;1.50;97.80;;;;;;5025487;28;19956;-77
2023/01/18 00:04:01;;;;;;;;;;;1.50;97.70;;;;;;5023438;28;20349;-78
2023/01/18 00:06:26;;;;;;;;;;;1.40;97.70;;;;;;5018445;28;20449;-78
2023/01/18 00:08:52;;;;;;;;;;;1.40;97.80;;;;;;5028310;28;19924;-78
2023/01/18 00:11:18;;;;;;;;;;;1.40;97.80;;;;;;5032792;28;19909;-79
2023/01/18 00:13:44;;;;;;;;;;;1.40;98.00;;;;;;5029371;28;19972;-77
2023/01/18 00:16:11;;;;;;;;;;;1.40;97.90;;;;;;5015703;28;19906;-78
2023/01/18 00:18:36;;;;;;;;;;;1.40;97.90;;;;;;5018178;28;19940;-78
2023/01/18 00:21:04;;;;;;;;;;;1.30;97.90;;;;;;5018401;28;19965;-77
2023/01/18 00:23:30;;;;;;;;;;;1.30;98.00;;;;;;5035150;28;19897;-78
2023/01/18 00:25:59;;;;;;;;;;;1.30;98.00;;;;;;5009101;28;19916;-78
2023/01/18 00:28:25;;;;;;;;;;;1.20;98.10;;;;;;5026440;28;20321;-78
2023/01/18 00:30:50;;;;;;;;;;;1.20;98.20;;;;;;5028296;28;19925;-77
2023/01/18 00:33:16;;;;;;;;;;;1.10;98.30;;;;;;5024570;28;19913;-77
2023/01/18 00:35:42;;;;;;;;;;;1.10;98.40;;;;;;5016455;28;19925;-78
2023/01/18 00:38:09;;;;;;;;;;;1.00;98.60;;;;;;5015597;28;19902;-78
2023/01/18 00:40:34;;;;;;;;;;;1.00;98.80;;;;;;5015586;28;19953;-78
2023/01/18 00:45:44;;;;;;;;;;;0.90;99.00;;;;;;5015305;28;19917;-78
2023/01/18 00:48:10;;;;;;;;;;;0.90;99.10;;;;;;5015866;28;20345;-78
2023/01/18 00:50:35;;;;;;;;;;;0.90;99.20;;;;;;5015410;28;19909;-78
2023/01/18 00:53:01;;;;;;;;;;;0.90;99.30;;;;;;5016405;28;20001;-78
2023/01/18 00:55:26;;;;;;;;;;;0.90;99.30;;;;;;5017777;28;20008;-79
2023/01/18 00:57:52;;;;;;;;;;;0.80;99.40;;;;;;5000488;28;19909;-79
2023/01/18 01:00:17;;;;;;;;;;;0.80;99.70;;;;;;5001062;28;19910;-79
2023/01/18 01:02:43;;;;;;;;;;;0.80;99.50;;;;;;4997365;28;20334;-78
2023/01/18 01:07:58;;;;;;;;;;;0.70;99.60;;;;;;5017520;28;19964;-79
2023/01/18 01:10:24;;;;;;;;;;;0.70;99.80;;;;;;5019148;28;19917;-80
2023/01/18 01:26:32;;;;;;;;;;;0.60;99.90;;;;;;4997194;28;19916;-79
2023/01/18 01:28:57;;;;;;;;;;;0.60;99.90;;;;;;4980896;28;20259;-79
2023/01/18 01:31:23;;;;;;;;;;;0.60;99.90;;;;;;4999820;28;19909;-79
2023/01/18 01:33:50;;;;;;;;;;;0.60;99.90;;;;;;5016885;28;19937;-79
2023/01/18 01:36:18;;;;;;;;;;;0.60;99.90;;;;;;5011099;28;19920;-80
2023/01/18 01:38:43;;;;;;;;;;;0.60;99.90;;;;;;4997144;28;19910;-79
2023/01/18 01:41:17;;;;;;;;;;;0.60;99.90;;;;;;5014143;28;20405;-79
2023/01/18 01:43:47;;;;;;;;;;;0.60;99.90;;;;;;5006600;28;19922;-79
2023/01/18 01:46:31;;;;;;;;;;;0.60;99.90;;;;;;5028773;28;19913;-78
2023/01/18 01:49:10;;;;;;;;;;;0.60;99.90;;;;;;5029967;28;19922;-78
2023/01/18 01:51:38;;;;;;;;;;;0.60;99.90;;;;;;5030545;28;19913;-78
2023/01/18 01:54:05;;;;;;;;;;;0.60;99.90;;;;;;5028856;28;19920;-77
2023/01/18 01:56:31;;;;;;;;;;;0.60;99.90;;;;;;5026795;28;19920;-78
2023/01/18 01:58:58;;;;;;;;;;;0.60;99.90;;;;;;5030868;28;19942;-77
2023/01/18 02:01:25;;;;;;;;;;;0.50;99.90;;;;;;5030832;28;19916;-78
2023/01/18 02:03:50;;;;;;;;;;;0.50;99.90;;;;;;5032173;28;19965;-78
2023/01/18 02:06:32;;;;;;;;;;;0.50;99.90;;;;;;5027881;28;19913;-78
2023/01/18 02:09:01;;;;;;;;;;;0.50;99.90;;;;;;5003839;28;19933;-79
2023/01/18 02:11:28;;;;;;;;;;;0.50;99.90;;;;;;5011235;28;19917;-78
2023/01/18 02:13:55;;;;;;;;;;;0.60;99.90;;;;;;5027090;28;19921;-80
2023/01/18 02:16:29;;;;;;;;;;;0.70;99.90;;;;;;5019972;28;19924;-79
2023/01/18 02:19:04;;;;;;;;;;;0.70;99.90;;;;;;5020495;28;19910;-79
2023/01/18 02:21:34;;;;;;;;;;;0.80;99.90;;;;;;5023825;28;19913;-78
2023/01/18 02:24:05;;;;;;;;;;;0.80;99.90;;;;;;5028375;28;19909;-79
2023/01/18 02:26:46;;;;;;;;;;;0.90;99.90;;;;;;5028982;28;19907;-79
2023/01/18 02:29:18;;;;;;;;;;;1.00;99.90;;;;;;5028847;28;19910;-78
2023/01/18 02:32:02;;;;;;;;;;;1.10;99.80;;;;;;5029491;28;19914;-79
2023/01/18 02:34:33;;;;;;;;;;;1.20;99.40;;;;;;5028087;28;20052;-79
2023/01/18 02:37:05;;;;;;;;;;;1.20;99.00;;;;;;5013635;28;20019;-79
2023/01/18 02:39:37;;;;;;;;;;;1.10;98.80;;;;;;4988921;28;19910;-78
2023/01/18 02:47:39;;;;;;;;;;;1.00;98.80;;;;;;5028012;28;19916;-78
2023/01/18 02:50:05;;;;;;;;;;;1.00;99.00;;;;;;5029320;28;19916;-79
2023/01/18 02:52:41;;;;;;;;;;;1.10;99.00;;;;;;5026155;28;19909;-79
2023/01/18 02:55:09;;;;;;;;;;;1.10;99.00;;;;;;5029002;28;19960;-78
2023/01/18 02:57:35;;;;;;;;;;;1.20;99.40;;;;;;5028434;28;19910;-78
2023/01/18 03:00:02;;;;;;;;;;;1.30;99.10;;;;;;5026671;28;19898;-79
2023/01/18 03:02:28;;;;;;;;;;;1.30;98.80;;;;;;5019505;28;19914;-78
2023/01/18 03:04:54;;;;;;;;;;;1.40;98.60;;;;;;5016240;28;19909;-79
2023/01/18 03:07:29;;;;;;;;;;;1.30;98.40;;;;;;5004439;28;19916;-79
2023/01/18 03:09:55;;;;;;;;;;;1.40;98.50;;;;;;4999050;28;19929;-79
2023/01/18 03:12:20;;;;;;;;;;;1.40;98.40;;;;;;5000086;28;20294;-79
2023/01/18 03:14:55;;;;;;;;;;;1.30;98.40;;;;;;5018036;28;19914;-79
2023/01/18 03:17:25;;;;;;;;;;;1.30;98.40;;;;;;5019069;28;19917;-78
2023/01/18 03:25:21;;;;;;;;;;;1.30;98.50;;;;;;5002533;28;20338;-79
2023/01/18 03:36:04;;;;;;;;;;;1.30;98.20;;;;;;5014611;28;19994;-78
2023/01/18 03:38:31;;;;;;;;;;;1.30;98.00;;;;;;4998326;28;19942;-80
2023/01/18 03:40:57;;;;;;;;;;;1.30;97.90;;;;;;4997160;28;20351;-79
2023/01/18 03:43:24;;;;;;;;;;;1.40;97.70;;;;;;5000317;28;19918;-79
2023/01/18 03:45:51;;;;;;;;;;;1.40;97.50;;;;;;5017177;28;19928;-79
2023/01/18 03:48:16;;;;;;;;;;;1.50;97.20;;;;;;5019860;28;19920;-79
2023/01/18 03:51:01;;;;;;;;;;;1.50;97.30;;;;;;5018113;28;19928;-78
2023/01/18 03:53:26;;;;;;;;;;;1.50;96.80;;;;;;5019725;28;19917;-79
2023/01/18 03:55:56;;;;;;;;;;;1.50;96.60;;;;;;5020205;28;20511;-79
2023/01/18 03:58:25;;;;;;;;;;;1.50;96.50;;;;;;5017874;28;19914;-79
2023/01/18 04:00:51;;;;;;;;;;;1.60;96.30;;;;;;5001037;28;20362;-79
2023/01/18 04:03:16;;;;;;;;;;;1.60;96.30;;;;;;5020114;28;19924;-79
2023/01/18 04:05:42;;;;;;;;;;;1.60;96.20;;;;;;5016062;28;19945;-79
2023/01/18 04:08:07;;;;;;;;;;;1.60;96.20;;;;;;5015346;28;19952;-79
2023/01/18 04:10:33;;;;;;;;;;;1.60;96.00;;;;;;5020659;28;19917;-76
2023/01/18 04:12:58;;;;;;;;;;;1.60;96.00;;;;;;5020395;28;20366;-77
2023/01/18 04:15:24;;;;;;;;;;;1.60;95.90;;;;;;5014854;28;19913;-78
2023/01/18 04:17:52;;;;;;;;;;;1.70;95.70;;;;;;5017655;28;19917;-79
2023/01/18 04:20:17;;;;;;;;;;;1.70;95.50;;;;;;5016420;28;20031;-79
2023/01/18 04:22:43;;;;;;;;;;;1.80;95.30;;;;;;5016092;28;20374;-79
2023/01/18 04:25:08;;;;;;;;;;;1.80;95.20;;;;;;5014742;28;19909;-79
2023/01/18 04:27:34;;;;;;;;;;;1.80;95.10;;;;;;5014757;28;19959;-79
2023/01/18 04:30:00;;;;;;;;;;;1.80;95.10;;;;;;5014849;28;19959;-79
2023/01/18 04:32:27;;;;;;;;;;;1.80;95.00;;;;;;5017320;28;19985;-79
2023/01/18 04:34:53;;;;;;;;;;;1.80;95.00;;;;;;5017323;28;19929;-79
2023/01/18 04:37:18;;;;;;;;;;;1.80;94.90;;;;;;5017446;28;19909;-79
2023/01/18 04:39:46;;;;;;;;;;;1.70;94.90;;;;;;5017742;28;19913;-79
2023/01/18 04:42:11;;;;;;;;;;;1.70;95.00;;;;;;5017949;28;19917;-80
2023/01/18 04:44:37;;;;;;;;;;;1.70;95.10;;;;;;5018704;28;20209;-79
2023/01/18 04:47:02;;;;;;;;;;;1.70;95.00;;;;;;5017411;28;19914;-79
2023/01/18 04:49:28;;;;;;;;;;;1.70;95.10;;;;;;5017376;28;19910;-80
2023/01/18 04:51:54;;;;;;;;;;;1.70;95.20;;;;;;5017565;28;19909;-78
2023/01/18 04:54:19;;;;;;;;;;;1.70;95.20;;;;;;5017508;28;19909;-78
2023/01/18 04:56:45;;;;;;;;;;;1.70;95.20;;;;;;5020466;28;19921;-76
2023/01/18 04:59:13;;;;;;;;;;;1.70;95.10;;;;;;5001538;28;19910;-78
2023/01/18 05:01:38;;;;;;;;;;;1.70;95.10;;;;;;5018090;28;19952;-78
2023/01/18 05:04:04;;;;;;;;;;;1.70;95.10;;;;;;5019430;28;20328;-78
2023/01/18 05:06:29;;;;;;;;;;;1.70;95.20;;;;;;5013859;28;19921;-79
2023/01/18 05:08:55;;;;;;;;;;;1.80;94.90;;;;;;5018219;28;20009;-78
2023/01/18 05:11:22;;;;;;;;;;;1.80;94.60;;;;;;5017946;28;20370;-75
2023/01/18 05:13:47;;;;;;;;;;;1.90;94.30;;;;;;5031680;28;19996;-79
2023/01/18 05:16:17;;;;;;;;;;;1.90;94.10;;;;;;5017657;28;19959;-79
2023/01/18 05:18:43;;;;;;;;;;;2.00;93.50;;;;;;5023195;28;19913;-77
2023/01/18 05:21:09;;;;;;;;;;;2.20;93.00;;;;;;5026014;28;19897;-77
2023/01/18 05:23:35;;;;;;;;;;;2.20;92.80;;;;;;5025628;28;19909;-77
2023/01/18 05:26:00;;;;;;;;;;;2.30;92.60;;;;;;5021081;28;19913;-78
2023/01/18 05:28:26;;;;;;;;;;;2.20;92.60;;;;;;5009348;28;19924;-78
2023/01/18 05:30:52;;;;;;;;;;;2.20;92.60;;;;;;5016590;28;19942;-77
2023/01/18 05:33:18;;;;;;;;;;;2.20;92.70;;;;;;5035955;28;19981;-77
2023/01/18 05:36:02;;;;;;;;;;;2.20;92.60;;;;;;5033281;28;19985;-76
2023/01/18 05:38:27;;;;;;;;;;;2.20;92.70;;;;;;5028746;28;19913;-79
2023/01/18 05:40:53;;;;;;;;;;;2.20;92.60;;;;;;5024497;28;19925;-78
2023/01/18 05:43:24;;;;;;;;;;;2.30;92.60;;;;;;5037385;28;19963;-77
2023/01/18 05:45:50;;;;;;;;;;;2.30;92.60;;;;;;5038554;28;19932;-76
2023/01/18 05:48:16;;;;;;;;;;;2.40;92.50;;;;;;5040130;28;19929;-75
2023/01/18 05:50:42;;;;;;;;;;;2.40;92.30;;;;;;5023350;28;19902;-75
2023/01/18 05:53:08;;;;;;;;;;;2.50;92.20;;;;;;5040661;28;19901;-75
2023/01/18 05:55:33;;;;;;;;;;;2.50;92.10;;;;;;5040054;28;19920;-77
2023/01/18 05:57:59;;;;;;;;;;;2.50;92.10;;;;;;5023302;28;19902;-76
2023/01/18 06:00:24;;;;;;;;;;;2.50;92.20;;;;;;5038945;28;19951;-75
2023/01/18 06:02:51;;;;;;;;;;;2.40;92.30;;;;;;5039026;28;19918;-77
2023/01/18 06:05:16;;;;;;;;;;;2.40;92.30;;;;;;5021665;28;19921;-77
2023/01/18 06:07:42;;;;;;;;;;;2.40;92.40;;;;;;5038303;28;19921;-77
2023/01/18 06:10:08;;;;;;;;;;;2.30;92.40;;;;;;5036173;28;19914;-77
2023/01/18 06:12:33;;;;;;;;;;;2.30;92.50;;;;;;5034752;28;19920;-76
2023/01/18 06:14:59;;;;;;;;;;;2.30;92.50;;;;;;5033738;28;19925;-77
2023/01/18 06:17:25;;;;;;;;;;;2.30;92.40;;;;;;5039866;28;19901;-74
2023/01/18 06:19:50;;;;;;;;;;;2.40;92.50;;;;;;5040157;28;19905;-75
2023/01/18 06:22:16;;;;;;;;;;;2.40;92.20;;;;;;5039481;28;19913;-75
2023/01/18 06:24:41;;;;;;;;;;;2.40;92.20;;;;;;5039817;28;19901;-76
2023/01/18 06:27:07;;;;;;;;;;;2.40;92.20;;;;;;5033943;28;19921;-76
2023/01/18 06:29:32;;;;;;;;;;;2.40;92.30;;;;;;5022399;28;19914;-77
2023/01/18 06:31:58;;;;;;;;;;;2.30;92.30;;;;;;5018526;28;19921;-78
2023/01/18 06:34:23;;;;;;;;;;;2.30;92.40;;;;;;5020277;28;19925;-78
2023/01/18 06:36:49;;;;;;;;;;;2.20;92.40;;;;;;5003820;28;19909;-77
2023/01/18 06:39:14;;;;;;;;;;;2.20;92.50;;;;;;5018693;28;19909;-78
2023/01/18 06:41:40;;;;;;;;;;;2.10;92.60;;;;;;5019389;28;19949;-78
2023/01/18 06:44:05;;;;;;;;;;;2.10;92.70;;;;;;5000519;28;19960;-78
2023/01/18 06:46:31;;;;;;;;;;;2.10;92.80;;;;;;5001848;28;19917;-78
2023/01/18 06:48:56;;;;;;;;;;;2.00;92.90;;;;;;5019399;28;19909;-77
2023/01/18 06:51:22;;;;;;;;;;;2.00;92.90;;;;;;5022668;28;20031;-80
2023/01/18 06:53:48;;;;;;;;;;;2.00;93.10;;;;;;5019520;28;19996;-76
2023/01/18 06:56:14;;;;;;;;;;;2.00;93.20;;;;;;5007197;28;19992;-77
2023/01/18 06:58:40;;;;;;;;;;;2.00;93.30;;;;;;5022659;28;19952;-78
2023/01/18 07:01:06;;;;;;;;;;;2.00;93.20;;;;;;5035677;28;19925;-77
2023/01/18 07:03:32;;;;;;;;;;;2.00;93.10;;;;;;5018772;28;19956;-78
2023/01/18 07:05:59;;;;;;;;;;;2.10;93.20;;;;;;5019240;28;19913;-77
2023/01/18 07:08:25;;;;;;;;;;;2.10;93.10;;;;;;5020074;28;19910;-78
2023/01/18 07:10:51;;;;;;;;;;;2.10;93.10;;;;;;5018862;28;20382;-79
2023/01/18 07:13:17;;;;;;;;;;;2.10;93.10;;;;;;5022134;28;19920;-78
2023/01/18 07:15:42;;;;;;;;;;;2.20;93.00;;;;;;5020236;28;19921;-78
2023/01/18 07:18:08;;;;;;;;;;;2.20;92.80;;;;;;5019039;28;19910;-78
2023/01/18 07:20:33;;;;;;;;;;;2.20;92.70;;;;;;5019363;28;20004;-77
2023/01/18 07:22:59;;;;;;;;;;;2.30;92.60;;;;;;5020597;28;19914;-79
2023/01/18 07:25:26;;;;;;;;;;;2.30;92.50;;;;;;5018422;28;19963;-79
2023/01/18 07:27:52;;;;;;;;;;;2.30;92.50;;;;;;5018357;28;19910;-77
2023/01/18 07:30:17;;;;;;;;;;;2.30;92.50;;;;;;5019247;28;19917;-77
2023/01/18 07:32:48;;;;;;;;;;;2.40;92.30;;;;;;5017966;28;19944;-77
2023/01/18 07:35:14;;;;;;;;;;;2.50;92.20;;;;;;5000641;28;19925;-77
2023/01/18 07:37:39;;;;;;;;;;;2.50;92.10;;;;;;5021961;28;19909;-79
2023/01/18 07:40:05;;;;;;;;;;;2.60;92.10;;;;;;5001502;28;20343;-78
2023/01/18 07:42:31;;;;;;;;;;;2.60;91.90;;;;;;5018114;28;19909;-78
2023/01/18 07:44:56;;;;;;;;;;;2.70;91.90;;;;;;5017632;28;19918;-77
2023/01/18 07:47:22;;;;;;;;;;;2.70;91.70;;;;;;5019728;28;19921;-78
2023/01/18 07:49:47;;;;;;;;;;;2.80;91.60;;;;;;5016930;28;19909;-79
2023/01/18 07:52:13;;;;;;;;;;;2.80;91.50;;;;;;5017135;28;20388;-78
2023/01/18 07:54:38;;;;;;;;;;;2.90;91.50;;;;;;5027517;28;19922;-76
2023/01/18 07:57:04;;;;;;;;;;;2.90;91.40;;;;;;5034195;28;20047;-77
2023/01/18 07:59:31;;;;;;;;;;;3.00;91.30;;;;;;5020709;28;20417;-78
2023/01/18 08:01:56;;;;;;;;;;;3.10;91.10;;;;;;5018365;28;19909;-78
2023/01/18 08:04:23;;;;;;;;;;;3.20;90.80;;;;;;5017865;28;19921;-78
2023/01/18 08:06:49;;;;;;;;;;;3.30;90.60;;;;;;5007451;28;19909;-77
2023/01/18 08:09:15;;;;;;;;;;;3.30;90.70;;;;;;5001168;28;20298;-76
2023/01/18 08:11:40;;;;;;;;;;;3.30;90.80;;;;;;5017068;28;19925;-78
2023/01/18 08:14:06;;;;;;;;;;;3.50;90.80;;;;;;5001966;28;20455;-77
2023/01/18 08:16:32;;;;;;;;;;;3.60;90.30;;;;;;5021047;28;19952;-78
2023/01/18 08:18:57;;;;;;;;;;;3.70;90.20;;;;;;5018469;28;19984;-78
2023/01/18 08:21:23;;;;;;;;;;;3.80;90.00;;;;;;5000650;28;19910;-79
2023/01/18 08:23:51;;;;;;;;;;;3.90;89.80;;;;;;5000236;28;19909;-78
2023/01/18 08:26:16;;;;;;;;;;;3.90;88.70;;;;;;5000105;28;19920;-78
2023/01/18 08:28:43;;;;;;;;;;;3.90;88.90;;;;;;5018617;28;20329;-78
2023/01/18 08:31:16;;;;;;;;;;;4.00;88.90;;;;;;5017819;28;20321;-78
2023/01/18 08:33:44;;;;;;;;;;;4.00;88.20;;;;;;5018165;28;20370;-78
2023/01/18 08:36:13;;;;;;;;;;;4.00;88.40;;;;;;5012091;28;20260;-79
2023/01/18 08:38:39;;;;;;;;;;;4.00;88.20;;;;;;4999151;28;19982;-78
2023/01/18 08:41:05;;;;;;;;;;;4.00;87.30;;;;;;5001980;28;19909;-77
2023/01/18 08:43:36;;;;;;;;;;;4.00;87.40;;;;;;5005451;28;19965;-78
2023/01/18 08:46:01;;;;;;;;;;;4.00;87.10;;;;;;5000987;28;19910;-78
2023/01/18 08:48:27;;;;;;;;;;;4.10;87.20;;;;;;4980865;28;20053;-78
2023/01/18 08:50:53;;;;;;;;;;;4.10;87.00;;;;;;5000469;28;19910;-79
2023/01/18 08:53:18;;;;;;;;;;;4.20;86.80;;;;;;5001583;28;19916;-79
2023/01/18 08:55:44;;;;;;;;;;;4.30;86.10;;;;;;4997762;28;19968;-78
2023/01/18 08:58:10;;;;;;;;;;;4.40;85.90;;;;;;5005778;28;19909;-80
2023/01/18 09:00:36;;;;;;;;;;;4.40;85.00;;;;;;4996245;28;19914;-78
2023/01/18 09:03:02;;;;;;;;;;;4.50;84.60;;;;;;5016159;28;19968;-78
2023/01/18 09:05:28;;;;;;;;;;;4.60;85.00;;;;;;5027906;28;19917;-79
2023/01/18 09:07:54;;;;;;;;;;;4.70;84.30;;;;;;5029198;28;20016;-79
2023/01/18 09:10:21;;;;;;;;;;;4.90;83.80;;;;;;5032200;28;19945;-80
2023/01/18 09:12:46;;;;;;;;;;;4.90;82.90;;;;;;5020923;28;19917;-80
2023/01/18 09:15:12;;;;;;;;;;;4.90;82.60;;;;;;5022008;28;19987;-80
2023/01/18 09:17:38;;;;;;;;;;;4.90;82.60;;;;;;5022922;28;19914;-79
2023/01/18 09:20:08;;;;;;;;;;;4.80;82.70;;;;;;5021105;28;20020;-80
2023/01/18 09:22:34;;;;;;;;;;;4.80;81.90;;;;;;5025310;28;19914;-80
2023/01/18 09:25:00;;;;;;;;;;;4.90;82.50;;;;;;5021335;28;19920;-80
2023/01/18 09:27:25;;;;;;;;;;;4.90;83.10;;;;;;5020385;28;20294;-80
2023/01/18 09:29:51;;;;;;;;;;;5.10;82.70;;;;;;5019374;28;20290;-79
2023/01/18 09:32:17;;;;;;;;;;;5.40;82.00;;;;;;5023407;28;19976;-79
2023/01/18 09:34:45;;;;;;;;;;;5.50;80.50;;;;;;5021923;28;19917;-78
2023/01/18 09:37:10;;;;;;;;;;;5.60;80.30;;;;;;5010178;28;19917;-78
2023/01/18 09:39:36;;;;;;;;;;;5.70;79.30;;;;;;5004179;28;19910;-78
2023/01/18 09:42:03;;;;;;;;;;;5.70;78.00;;;;;;5005459;28;19898;-80
2023/01/18 09:44:31;;;;;;;;;;;5.70;78.50;;;;;;5004741;28;19917;-78
2023/01/18 09:47:00;;;;;;;;;;;5.80;78.40;;;;;;5024728;28;19968;-79
2023/01/18 09:49:35;;;;;;;;;;;5.70;78.50;;;;;;5025349;28;19910;-79
2023/01/18 09:52:15;;;;;;;;;;;5.70;78.40;;;;;;5025517;28;19910;-79
2023/01/18 09:54:49;;;;;;;;;;;5.60;78.30;;;;;;5028190;28;19979;-79
2023/01/18 09:57:21;;;;;;;;;;;5.40;79.20;;;;;;5034948;28;19914;-77
2023/01/18 09:59:53;;;;;;;;;;;5.30;79.90;;;;;;5020800;28;20009;-79
2023/01/18 10:02:24;;;;;;;;;;;5.20;80.80;;;;;;5000817;28;19910;-79
2023/01/18 10:04:53;;;;;;;;;;;5.20;80.20;;;;;;5020606;28;19909;-78
2023/01/18 10:07:19;;;;;;;;;;;5.20;80.20;;;;;;5020383;28;19964;-80
2023/01/18 10:09:51;;;;;;;;;;;5.10;80.60;;;;;;5021672;28;19910;-80
2023/01/18 10:12:28;;;;;;;;;;;5.20;80.50;;;;;;5018210;28;19920;-79
2023/01/18 10:14:54;;;;;;;;;;;5.30;79.70;;;;;;5016774;28;19944;-81
2023/01/18 10:17:24;;;;;;;;;;;5.20;79.70;;;;;;5010555;28;19909;-81
2023/01/18 10:19:50;;;;;;;;;;;5.20;79.20;;;;;;5013092;28;20279;-80
2023/01/18 10:22:28;;;;;;;;;;;5.20;80.90;;;;;;5007014;28;19910;-81
2023/01/18 10:25:05;;;;;;;;;;;5.20;80.80;;;;;;5026466;28;19910;-80
2023/01/18 10:27:40;;;;;;;;;;;5.20;81.40;;;;;;5008883;28;20426;-80
2023/01/18 10:30:13;;;;;;;;;;;5.10;81.30;;;;;;5026310;28;19914;-81
2023/01/18 10:32:41;;;;;;;;;;;4.90;81.90;;;;;;5026945;28;19917;-80
2023/01/18 10:35:13;;;;;;;;;;;4.80;82.10;;;;;;5027937;28;20302;-81
2023/01/18 10:37:44;;;;;;;;;;;4.70;81.60;;;;;;5028160;28;19917;-81
2023/01/18 10:40:11;;;;;;;;;;;4.60;83.10;;;;;;5029692;28;19920;-81
2023/01/18 10:42:47;;;;;;;;;;;4.60;83.20;;;;;;5029731;28;19922;-81
2023/01/18 10:45:20;;;;;;;;;;;4.70;83.00;;;;;;5028275;28;19913;-81
2023/01/18 10:47:49;;;;;;;;;;;4.70;83.00;;;;;;5026556;28;20378;-80
2023/01/18 10:50:16;;;;;;;;;;;4.70;83.40;;;;;;5027570;28;19920;-80
2023/01/18 10:52:42;;;;;;;;;;;4.60;83.40;;;;;;5028166;28;19913;-80
2023/01/18 10:55:16;;;;;;;;;;;4.60;82.90;;;;;;5028347;28;19972;-80
2023/01/18 10:57:50;;;;;;;;;;;4.50;83.00;;;;;;5029805;28;20382;-80
2023/01/18 11:00:20;;;;;;;;;;;4.40;82.60;;;;;;5044066;28;19909;-81
2023/01/18 11:02:46;;;;;;;;;;;4.40;83.90;;;;;;5030800;28;19909;-81
2023/01/18 11:05:28;;;;;;;;;;;4.50;83.00;;;;;;5032004;28;19929;-80
2023/01/18 11:08:17;;;;;;;;;;;4.50;82.50;;;;;;5020727;28;19902;-80
2023/01/18 11:10:44;;;;;;;;;;;4.60;81.90;;;;;;5020769;28;19920;-81
2023/01/18 11:13:28;;;;;;;;;;;4.60;80.40;;;;;;5036883;28;19913;-82
2023/01/18 11:16:12;;;;;;;;;;;4.60;80.30;;;;;;5033804;28;19917;-81
2023/01/18 11:18:58;;;;;;;;;;;4.60;80.60;;;;;;5035977;28;19913;-81
2023/01/18 11:21:25;;;;;;;;;;;4.60;79.60;;;;;;5036542;28;19914;-81
2023/01/18 11:23:51;;;;;;;;;;;4.60;79.50;;;;;;5011771;28;20004;-81
2023/01/18 11:26:19;;;;;;;;;;;4.70;79.50;;;;;;5021578;28;19956;-81
2023/01/18 11:29:03;;;;;;;;;;;4.70;79.10;;;;;;5022848;28;19916;-80
2023/01/18 11:31:44;;;;;;;;;;;4.70;79.80;;;;;;5021999;28;20382;-81
2023/01/18 11:34:20;;;;;;;;;;;4.70;79.30;;;;;;5021575;28;19916;-80
2023/01/18 11:36:46;;;;;;;;;;;4.80;79.20;;;;;;5022292;28;19963;-80
2023/01/18 11:39:26;;;;;;;;;;;4.70;79.40;;;;;;5022286;28;19909;-80
2023/01/18 11:42:29;;;;;;;;;;;4.60;79.30;;;;;;5003231;28;19910;-80
2023/01/18 11:45:05;;;;;;;;;;;4.50;80.20;;;;;;4942038;29;19918;-81
2023/01/18 11:47:57;;;;;;;;;;;4.40;81.30;;;;;;5010308;28;19909;-81
2023/01/18 11:50:27;;;;;;;;;;;4.30;81.00;;;;;;4980723;28;19969;-81
2023/01/18 11:52:55;;;;;;;;;;;4.20;82.30;;;;;;5020824;28;20326;-81
2023/01/18 11:55:22;;;;;;;;;;;4.30;80.90;;;;;;5020802;28;19937;-81
2023/01/18 11:57:48;;;;;;;;;;;4.20;81.00;;;;;;5003495;28;19909;-81
2023/01/18 12:00:14;;;;;;;;;;;4.20;81.70;;;;;;5020991;28;20288;-81
2023/01/18 12:02:54;;;;;;;;;;;4.20;81.20;;;;;;5023620;28;20289;-81
2023/01/18 12:05:39;;;;;;;;;;;4.20;80.80;;;;;;5022733;28;19967;-81
2023/01/18 12:08:23;;;;;;;;;;;4.10;81.30;;;;;;5025210;28;19936;-81
2023/01/18 12:11:07;;;;;;;;;;;4.00;81.10;;;;;;5023271;28;19918;-81
2023/01/18 12:13:34;;;;;;;;;;;4.10;80.10;;;;;;5006616;28;20324;-82
2023/01/18 12:15:59;;;;;;;;;;;4.20;79.40;;;;;;5021275;28;20408;-81
2023/01/18 12:18:34;;;;;;;;;;;4.30;79.10;;;;;;5019811;28;19948;-79
2023/01/18 12:21:03;;;;;;;;;;;4.30;79.00;;;;;;5004708;28;19936;-79
2023/01/18 12:23:43;;;;;;;;;;;4.20;78.60;;;;;;5019510;28;20017;-79
2023/01/18 12:26:17;;;;;;;;;;;4.10;77.80;;;;;;5001644;28;19913;-80
2023/01/18 12:28:46;;;;;;;;;;;4.10;78.10;;;;;;5013755;28;19910;-78
2023/01/18 12:31:17;;;;;;;;;;;4.10;78.20;;;;;;5000974;28;20044;-80
2023/01/18 12:33:53;;;;;;;;;;;4.00;78.20;;;;;;5018246;28;20362;-80
2023/01/18 12:36:18;;;;;;;;;;;4.00;78.90;;;;;;5012895;28;19905;-81
2023/01/18 12:38:48;;;;;;;;;;;4.20;77.90;;;;;;5035991;28;19970;-80
2023/01/18 12:41:20;;;;;;;;;;;4.40;77.50;;;;;;5012406;28;19915;-79
2023/01/18 12:44:04;;;;;;;;;;;4.50;75.50;;;;;;5020282;28;19945;-79
2023/01/18 12:46:30;;;;;;;;;;;4.60;75.20;;;;;;5018693;28;19917;-80
2023/01/18 12:48:59;;;;;;;;;;;4.70;75.70;;;;;;5017870;28;20286;-79
2023/01/18 12:51:26;;;;;;;;;;;4.60;75.90;;;;;;5018298;28;19920;-80
2023/01/18 12:53:58;;;;;;;;;;;4.60;77.20;;;;;;5016831;28;20004;-80
2023/01/18 12:56:31;;;;;;;;;;;4.60;78.60;;;;;;5017443;28;19924;-80
2023/01/18 12:58:59;;;;;;;;;;;4.50;79.70;;;;;;5005032;28;19996;-80
2023/01/18 13:01:28;;;;;;;;;;;4.30;81.10;;;;;;4998323;28;19956;-79
2023/01/18 13:03:56;;;;;;;;;;;4.10;81.10;;;;;;5001467;28;19909;-78
2023/01/18 13:06:24;;;;;;;;;;;3.90;81.80;;;;;;5016847;28;20374;-79
2023/01/18 13:08:55;;;;;;;;;;;3.70;82.70;;;;;;5007871;28;20256;-79
2023/01/18 13:11:24;;;;;;;;;;;3.50;83.90;;;;;;5017164;28;19909;-79
2023/01/18 13:13:58;;;;;;;;;;;3.50;83.80;;;;;;4999333;28;19909;-79
2023/01/18 13:16:26;;;;;;;;;;;3.40;85.40;;;;;;4998041;28;19918;-79
2023/01/18 13:19:12;;;;;;;;;;;3.40;83.50;;;;;;5001253;28;20272;-79
2023/01/18 13:21:59;;;;;;;;;;;3.40;82.20;;;;;;5001435;28;20009;-79
2023/01/18 13:24:27;;;;;;;;;;;3.40;81.50;;;;;;4983037;28;19914;-80
2023/01/18 13:27:04;;;;;;;;;;;3.40;82.70;;;;;;5001245;28;19909;-79
2023/01/18 13:29:29;;;;;;;;;;;3.20;83.90;;;;;;5012071;28;19913;-80
2023/01/18 13:31:56;;;;;;;;;;;3.10;84.30;;;;;;5018676;28;20409;-79
2023/01/18 13:34:24;;;;;;;;;;;3.00;85.20;;;;;;5018221;28;19921;-80
2023/01/18 13:36:50;;;;;;;;;;;3.00;86.20;;;;;;4999864;28;19913;-80
2023/01/18 13:39:16;;;;;;;;;;;3.00;86.00;;;;;;4999165;28;19909;-80
2023/01/18 13:42:02;;;;;;;;;;;3.00;85.00;;;;;;4999702;28;19914;-80
2023/01/18 13:44:31;;;;;;;;;;;3.00;84.10;;;;;;5007544;28;19918;-80
2023/01/18 13:46:58;;;;;;;;;;;3.00;84.40;;;;;;5000241;28;19960;-80
2023/01/18 13:49:36;;;;;;;;;;;3.00;84.90;;;;;;5021232;28;19914;-79
2023/01/18 13:52:03;;;;;;;;;;;3.00;82.60;;;;;;5023715;28;19916;-78
2023/01/18 13:54:28;;;;;;;;;;;2.80;82.40;;;;;;5020665;28;19918;-79
2023/01/18 13:57:00;;;;;;;;;;;2.60;83.70;;;;;;5018262;28;19964;-79
2023/01/18 13:59:33;;;;;;;;;;;2.50;84.60;;;;;;5019612;28;19910;-79
2023/01/18 14:02:17;;;;;;;;;;;2.50;84.70;;;;;;5020874;28;19921;-80
2023/01/18 14:04:43;;;;;;;;;;;2.50;84.90;;;;;;5003270;28;19909;-78
2023/01/18 14:07:16;;;;;;;;;;;2.40;85.00;;;;;;5020193;28;20255;-79
2023/01/18 14:09:44;;;;;;;;;;;2.30;85.70;;;;;;5020535;28;19972;-78
2023/01/18 14:12:10;;;;;;;;;;;2.40;86.70;;;;;;5020665;28;19914;-80
2023/01/18 14:14:54;;;;;;;;;;;2.70;84.80;;;;;;5019460;28;19909;-78
2023/01/18 14:17:20;;;;;;;;;;;2.80;84.30;;;;;;5020330;28;19913;-79
2023/01/18 14:19:46;;;;;;;;;;;2.70;84.60;;;;;;5022393;28;19965;-79
2023/01/18 14:22:18;;;;;;;;;;;2.60;84.90;;;;;;5014705;28;19914;-80
2023/01/18 14:24:53;;;;;;;;;;;2.50;85.50;;;;;;4995925;28;19924;-78
2023/01/18 14:27:21;;;;;;;;;;;2.50;86.50;;;;;;5024914;28;19915;-78
2023/01/18 14:29:49;;;;;;;;;;;2.40;85.90;;;;;;5016564;28;20429;-76
2023/01/18 14:32:24;;;;;;;;;;;2.50;85.40;;;;;;5004268;28;19957;-78
2023/01/18 14:35:13;;;;;;;;;;;2.30;86.10;;;;;;4996704;28;19921;-78
2023/01/18 14:37:39;;;;;;;;;;;2.20;86.40;;;;;;5009735;28;19917;-79
2023/01/18 14:40:05;;;;;;;;;;;2.20;86.50;;;;;;5019716;28;20363;-79
2023/01/18 14:42:33;;;;;;;;;;;2.20;87.00;;;;;;5022265;28;19920;-80
2023/01/18 14:45:00;;;;;;;;;;;2.30;87.00;;;;;;5004887;28;19909;-81
2023/01/18 14:47:29;;;;;;;;;;;2.30;87.10;;;;;;5023575;28;19909;-81
2023/01/18 14:49:54;;;;;;;;;;;2.30;86.80;;;;;;5014195;28;20025;-81
2023/01/18 14:52:22;;;;;;;;;;;2.20;87.30;;;;;;5005375;28;20379;-80
2023/01/18 14:54:50;;;;;;;;;;;2.20;87.40;;;;;;5009938;28;20414;-80
2023/01/18 14:57:16;;;;;;;;;;;2.10;88.50;;;;;;5003386;28;19914;-79
2023/01/18 14:59:50;;;;;;;;;;;2.10;88.50;;;;;;5004581;28;19924;-79
2023/01/18 15:02:17;;;;;;;;;;;2.10;89.00;;;;;;5019758;28;19937;-80
2023/01/18 15:04:46;;;;;;;;;;;2.10;88.60;;;;;;5007748;28;19972;-82
2023/01/18 15:07:13;;;;;;;;;;;2.10;88.30;;;;;;5024015;28;19913;-80
2023/01/18 15:09:41;;;;;;;;;;;2.10;88.30;;;;;;5023480;28;19913;-80
2023/01/18 15:12:08;;;;;;;;;;;2.10;88.10;;;;;;5022345;28;19918;-80
2023/01/18 15:14:36;;;;;;;;;;;2.10;88.50;;;;;;5019131;28;19937;-80
2023/01/18 15:17:04;;;;;;;;;;;2.10;88.50;;;;;;5014753;28;19914;-79
2023/01/18 15:19:30;;;;;;;;;;;2.10;88.40;;;;;;5020521;28;19997;-80